Terminal Aerodrome Forecast
Issued by NWS Anchorage, AK

Home | Current Version | Previous Version | Text Only | Print | Product List | Glossary On
Versions: 1 2 3 4 5 6 7 8 9 10 11 12 13 14 15 16 17 18 19 20 21 22 23 24 25 26 27 28 29 30 31 32 33 34
002
FTAK31 PANC 052338
TAFANC
TAF
PANC 052338Z 0600/0706 VRB04KT P6SM SCT050 BKN080
     FM060100 16008KT 6SM -SHSNRA SCT020 OVC050
      TEMPO 0601/0604 3SM -SHSN BKN020
     FM060400 15006KT P6SM VCSH BKN040
     FM061200 VRB05KT P6SM BCFG SCT060
     FM062000 01004KT P6SM -SHSN SCT050 BKN070=

USA.gov is the U.S. government's official web portal to all federal, state and local government web resources and services.